Time;durP1;ratioP1;P1;durP2;ratioP2;P2;SDS_P1;SDS_P2;PMS_P1;PMS_P2;Temp;Humidity;BMP_temperature;BMP_pressure;BME280_temperature;BME280_humidity;BME280_pressure;Samples;Min_cycle;Max_cycle;Signal;HPM_P1;HPM_P2
2022/04/25 00:01:15;;;;;;;;;;;20.50;38.00;;;;;;5122934;28;20353;-50
2022/04/25 00:03:42;;;;;;;;;;;20.50;38.00;;;;;;5115273;28;19920;-50
2022/04/25 00:06:09;;;;;;;;;;;20.50;38.00;;;;;;5116007;27;20006;-50
2022/04/25 00:08:37;;;;;;;;;;;20.50;38.00;;;;;;5122034;28;19919;-49
2022/04/25 00:11:04;;;;;;;;;;;20.50;38.00;;;;;;5115167;28;19923;-50
2022/04/25 00:13:30;;;;;;;;;;;20.50;38.20;;;;;;5128867;27;19980;-48
2022/04/25 00:15:57;;;;;;;;;;;20.50;37.90;;;;;;5122371;27;19927;-51
2022/04/25 00:18:25;;;;;;;;;;;20.50;37.90;;;;;;5115765;28;19920;-51
2022/04/25 00:20:51;;;;;;;;;;;20.50;37.90;;;;;;5117259;27;19926;-49
2022/04/25 00:23:18;;;;;;;;;;;20.50;38.00;;;;;;5116315;27;20320;-49
2022/04/25 00:25:47;;;;;;;;;;;20.50;37.90;;;;;;5114938;27;19980;-47
2022/04/25 00:28:13;;;;;;;;;;;20.50;37.90;;;;;;5120106;28;19958;-51
2022/04/25 00:30:42;;;;;;;;;;;20.50;38.00;;;;;;5128076;27;20260;-49
2022/04/25 00:33:09;;;;;;;;;;;20.50;37.90;;;;;;5128481;27;19962;-49
2022/04/25 00:35:36;;;;;;;;;;;20.50;37.90;;;;;;5118464;27;19919;-54
2022/04/25 00:38:02;;;;;;;;;;;20.50;37.90;;;;;;5129307;27;20463;-50
2022/04/25 00:40:29;;;;;;;;;;;20.50;37.90;;;;;;5124510;27;19964;-48
2022/04/25 00:42:57;;;;;;;;;;;20.50;37.90;;;;;;5130802;27;19923;-54
2022/04/25 00:45:24;;;;;;;;;;;20.50;37.90;;;;;;5138393;27;19919;-54
2022/04/25 00:47:51;;;;;;;;;;;20.50;38.00;;;;;;5118047;27;19934;-48
2022/04/25 00:50:19;;;;;;;;;;;20.50;38.50;;;;;;5124866;27;19934;-53
2022/04/25 00:52:45;;;;;;;;;;;20.50;37.90;;;;;;5119516;27;19927;-55
2022/04/25 00:55:12;;;;;;;;;;;20.50;37.90;;;;;;5122218;27;20368;-49
2022/04/25 00:57:39;;;;;;;;;;;20.50;37.90;;;;;;5122992;27;19953;-50
2022/04/25 01:00:08;;;;;;;;;;;20.50;37.90;;;;;;5125722;27;19919;-56
2022/04/25 01:02:35;;;;;;;;;;;20.50;38.50;;;;;;5130592;27;19985;-50
2022/04/25 01:05:06;;;;;;;;;;;20.50;37.90;;;;;;5135862;27;20363;-51
2022/04/25 01:07:33;;;;;;;;;;;20.50;37.90;;;;;;5138320;27;19919;-53
2022/04/25 01:10:00;;;;;;;;;;;20.50;37.90;;;;;;5125154;27;19923;-51
2022/04/25 01:12:27;;;;;;;;;;;20.50;37.90;;;;;;5122607;27;20245;-52
2022/04/25 01:15:00;;;;;;;;;;;20.50;37.90;;;;;;5115448;27;20276;-49
2022/04/25 01:17:28;;;;;;;;;;;20.40;37.80;;;;;;5127085;27;19966;-52
2022/04/25 01:19:54;;;;;;;;;;;20.50;37.90;;;;;;5136954;27;20312;-52
2022/04/25 01:22:23;;;;;;;;;;;20.50;37.90;;;;;;5144450;27;19919;-50
2022/04/25 01:27:35;;;;;;;;;;;20.50;37.90;;;;;;5117804;27;20370;-56
2022/04/25 01:30:03;;;;;;;;;;;20.50;37.90;;;;;;5120340;27;19919;-50
2022/04/25 01:32:30;;;;;;;;;;;20.40;37.90;;;;;;5124500;27;19949;-53
2022/04/25 01:34:57;;;;;;;;;;;20.50;37.90;;;;;;5131617;27;19940;-52
2022/04/25 01:37:24;;;;;;;;;;;20.50;37.90;;;;;;5117442;27;20272;-49
2022/04/25 01:39:52;;;;;;;;;;;20.50;37.90;;;;;;5135412;27;19919;-50
2022/04/25 01:42:20;;;;;;;;;;;20.50;37.90;;;;;;5117447;27;19954;-54
2022/04/25 01:44:47;;;;;;;;;;;20.50;37.90;;;;;;5122367;27;19919;-51
2022/04/25 01:47:13;;;;;;;;;;;20.50;37.90;;;;;;5134981;27;19927;-52
2022/04/25 01:49:40;;;;;;;;;;;20.50;37.90;;;;;;5123808;27;19926;-48
2022/04/25 01:52:08;;;;;;;;;;;20.50;37.80;;;;;;5137055;27;19919;-51
2022/04/25 01:54:35;;;;;;;;;;;20.40;37.80;;;;;;5124706;27;19980;-54
2022/04/25 01:57:03;;;;;;;;;;;20.50;37.90;;;;;;5137783;27;19923;-49
2022/04/25 01:59:30;;;;;;;;;;;20.50;37.80;;;;;;5133641;27;19919;-54
2022/04/25 02:01:57;;;;;;;;;;;20.40;37.80;;;;;;5126263;27;19931;-52
2022/04/25 02:04:24;;;;;;;;;;;20.40;37.80;;;;;;5134482;27;19919;-52
2022/04/25 02:06:50;;;;;;;;;;;20.40;37.80;;;;;;5127405;27;20000;-53
2022/04/25 02:09:20;;;;;;;;;;;20.40;37.80;;;;;;5155026;27;19978;-50
2022/04/25 02:11:47;;;;;;;;;;;20.40;37.80;;;;;;5121133;27;19919;-53
2022/04/25 02:14:15;;;;;;;;;;;20.50;37.80;;;;;;5116980;27;19937;-48
2022/04/25 02:16:41;;;;;;;;;;;20.40;37.80;;;;;;5134857;27;20363;-50
2022/04/25 02:19:08;;;;;;;;;;;20.40;37.80;;;;;;5119033;27;20010;-51
2022/04/25 02:21:35;;;;;;;;;;;20.40;37.70;;;;;;5147530;27;19965;-49
2022/04/25 02:24:02;;;;;;;;;;;20.40;37.70;;;;;;5122152;27;19962;-51
2022/04/25 02:26:30;;;;;;;;;;;20.50;37.80;;;;;;5130455;27;19930;-50
2022/04/25 02:28:59;;;;;;;;;;;20.40;38.30;;;;;;5134367;27;20012;-51
2022/04/25 02:31:28;;;;;;;;;;;20.40;38.30;;;;;;5147657;27;20290;-49
2022/04/25 02:33:55;;;;;;;;;;;20.40;37.70;;;;;;5140772;27;19926;-54
2022/04/25 02:36:23;;;;;;;;;;;20.40;37.70;;;;;;5116959;27;19926;-55
2022/04/25 02:38:49;;;;;;;;;;;20.40;37.70;;;;;;5139751;27;19942;-50
2022/04/25 02:41:16;;;;;;;;;;;20.40;38.30;;;;;;5127554;27;19919;-52
2022/04/25 02:43:43;;;;;;;;;;;20.50;37.80;;;;;;5154355;27;19927;-50
2022/04/25 02:46:10;;;;;;;;;;;20.40;37.70;;;;;;5123216;27;20368;-49
2022/04/25 02:48:38;;;;;;;;;;;20.40;37.70;;;;;;5116952;27;19934;-52
2022/04/25 02:51:05;;;;;;;;;;;20.40;37.70;;;;;;5116758;27;19969;-53
2022/04/25 02:53:32;;;;;;;;;;;20.40;37.70;;;;;;5137323;27;19931;-49
2022/04/25 02:55:59;;;;;;;;;;;20.40;37.70;;;;;;5120653;27;20329;-54
2022/04/25 02:58:26;;;;;;;;;;;20.40;37.70;;;;;;5116856;27;19919;-50
2022/04/25 03:00:53;;;;;;;;;;;20.40;37.70;;;;;;5116791;27;20018;-52
2022/04/25 03:03:20;;;;;;;;;;;20.40;37.70;;;;;;5135267;27;20435;-52
2022/04/25 03:05:49;;;;;;;;;;;20.40;37.70;;;;;;5139965;27;20344;-53
2022/04/25 03:08:16;;;;;;;;;;;20.40;37.70;;;;;;5114657;27;19920;-53
2022/04/25 03:10:44;;;;;;;;;;;20.40;37.70;;;;;;5122530;27;19931;-50
2022/04/25 03:13:11;;;;;;;;;;;20.40;37.70;;;;;;5135888;27;19930;-49
2022/04/25 03:15:38;;;;;;;;;;;20.40;37.70;;;;;;5123093;27;19927;-51
2022/04/25 03:18:05;;;;;;;;;;;20.40;37.60;;;;;;5123935;27;19972;-48
2022/04/25 03:20:32;;;;;;;;;;;20.40;37.60;;;;;;5134623;27;20642;-51
2022/04/25 03:23:01;;;;;;;;;;;20.40;37.60;;;;;;5115954;28;20484;-51
2022/04/25 03:25:28;;;;;;;;;;;20.40;37.60;;;;;;5121271;27;19920;-50
2022/04/25 03:27:55;;;;;;;;;;;20.40;37.60;;;;;;5118650;27;20324;-51
2022/04/25 03:30:21;;;;;;;;;;;20.40;37.60;;;;;;5133832;27;20054;-48
2022/04/25 03:32:49;;;;;;;;;;;20.40;37.60;;;;;;5146140;27;19923;-50
2022/04/25 03:35:17;;;;;;;;;;;20.40;37.60;;;;;;5141129;27;19923;-48
2022/04/25 03:37:44;;;;;;;;;;;20.40;37.60;;;;;;5122892;28;20025;-52
2022/04/25 03:40:12;;;;;;;;;;;20.40;37.60;;;;;;5135096;27;19927;-49
2022/04/25 03:42:39;;;;;;;;;;;20.40;37.60;;;;;;5135081;27;19986;-52
2022/04/25 03:45:07;;;;;;;;;;;20.40;37.60;;;;;;5116478;28;19944;-50
2022/04/25 03:47:34;;;;;;;;;;;20.40;37.60;;;;;;5116794;27;19932;-48
2022/04/25 03:50:01;;;;;;;;;;;20.40;37.60;;;;;;5114934;28;19926;-49
2022/04/25 03:52:27;;;;;;;;;;;20.40;37.60;;;;;;5136813;27;19941;-54
2022/04/25 03:57:51;;;;;;;;;;;20.40;37.60;;;;;;5047361;28;19925;-51
2022/04/25 04:00:18;;;;;;;;;;;20.40;37.60;;;;;;5109528;27;19923;-53
2022/04/25 04:02:45;;;;;;;;;;;20.40;37.50;;;;;;5119566;28;20395;-52
2022/04/25 04:05:12;;;;;;;;;;;20.40;37.50;;;;;;5116619;28;19928;-49
2022/04/25 04:07:38;;;;;;;;;;;20.40;37.50;;;;;;5133805;27;19927;-49
2022/04/25 04:10:05;;;;;;;;;;;20.40;37.60;;;;;;5149891;27;20401;-50
2022/04/25 04:12:32;;;;;;;;;;;20.40;37.50;;;;;;5121454;27;19923;-50
2022/04/25 04:15:02;;;;;;;;;;;20.40;37.50;;;;;;5118919;27;20127;-51
2022/04/25 04:17:29;;;;;;;;;;;20.40;37.50;;;;;;5118279;27;19938;-50
2022/04/25 04:19:55;;;;;;;;;;;20.40;37.50;;;;;;5126876;27;20359;-51
2022/04/25 04:22:22;;;;;;;;;;;20.40;37.50;;;;;;5125740;27;19990;-54
2022/04/25 04:24:49;;;;;;;;;;;20.40;37.50;;;;;;5137872;27;20387;-48
2022/04/25 04:27:16;;;;;;;;;;;20.40;37.50;;;;;;5146467;27;19919;-47
2022/04/25 04:29:43;;;;;;;;;;;20.40;37.50;;;;;;5138257;27;19955;-50
2022/04/25 04:32:12;;;;;;;;;;;20.40;37.50;;;;;;5117388;27;21769;-51
2022/04/25 04:34:39;;;;;;;;;;;20.40;37.50;;;;;;5117730;27;19924;-53
2022/04/25 04:37:06;;;;;;;;;;;20.40;37.50;;;;;;5130251;27;20013;-54
2022/04/25 04:39:33;;;;;;;;;;;20.40;37.50;;;;;;5136800;27;20267;-50
2022/04/25 04:42:01;;;;;;;;;;;20.40;37.50;;;;;;5127694;27;19919;-48
2022/04/25 04:44:28;;;;;;;;;;;20.40;37.50;;;;;;5122771;27;19938;-51
2022/04/25 04:46:55;;;;;;;;;;;20.40;37.50;;;;;;5137999;27;20379;-49
2022/04/25 04:49:23;;;;;;;;;;;20.40;37.50;;;;;;5139899;27;19939;-53
2022/04/25 04:51:50;;;;;;;;;;;20.40;37.50;;;;;;5121927;27;19935;-49
2022/04/25 04:54:17;;;;;;;;;;;20.40;37.50;;;;;;5143433;27;19925;-51
2022/04/25 04:56:45;;;;;;;;;;;20.40;37.50;;;;;;5118303;27;20018;-54
2022/04/25 04:59:11;;;;;;;;;;;20.40;37.50;;;;;;5133104;27;19949;-54
2022/04/25 05:01:38;;;;;;;;;;;20.40;37.50;;;;;;5119285;27;20394;-49
2022/04/25 05:04:05;;;;;;;;;;;20.40;37.40;;;;;;5123289;27;19923;-55
2022/04/25 05:06:36;;;;;;;;;;;20.40;37.50;;;;;;5139932;27;19919;-50
2022/04/25 05:09:02;;;;;;;;;;;20.40;37.40;;;;;;5135155;27;20005;-54
2022/04/25 05:11:30;;;;;;;;;;;20.40;37.40;;;;;;5126695;27;19979;-52
2022/04/25 05:13:58;;;;;;;;;;;20.40;37.40;;;;;;5123052;27;19972;-51
2022/04/25 05:16:25;;;;;;;;;;;20.40;37.40;;;;;;5140479;27;19919;-52
2022/04/25 05:18:51;;;;;;;;;;;20.40;37.40;;;;;;5124853;27;19926;-52
2022/04/25 05:21:18;;;;;;;;;;;20.40;37.40;;;;;;5118086;27;20257;-49
2022/04/25 05:23:46;;;;;;;;;;;20.40;37.40;;;;;;5121856;27;20420;-52
2022/04/25 05:26:13;;;;;;;;;;;20.40;37.40;;;;;;5140118;27;19958;-53
2022/04/25 05:28:40;;;;;;;;;;;20.40;37.40;;;;;;5118151;27;19953;-53
2022/04/25 05:31:07;;;;;;;;;;;20.40;37.40;;;;;;5140898;27;19935;-54
2022/04/25 05:33:34;;;;;;;;;;;20.40;37.40;;;;;;5118625;27;19957;-50
2022/04/25 05:36:00;;;;;;;;;;;20.40;37.40;;;;;;5139580;27;19972;-51
2022/04/25 05:38:27;;;;;;;;;;;20.40;37.40;;;;;;5147780;27;19927;-52
2022/04/25 05:40:56;;;;;;;;;;;20.40;37.40;;;;;;5118352;27;19926;-54
2022/04/25 05:43:23;;;;;;;;;;;20.40;37.40;;;;;;5124038;27;19923;-54
2022/04/25 05:45:50;;;;;;;;;;;20.40;37.40;;;;;;5121765;27;19962;-52
2022/04/25 05:53:45;;;;;;;;;;;20.40;37.40;;;;;;5120227;27;19927;-51
2022/04/25 05:56:13;;;;;;;;;;;20.40;37.40;;;;;;5134306;27;20401;-53
2022/04/25 05:58:41;;;;;;;;;;;20.40;37.40;;;;;;5135996;27;19919;-52
2022/04/25 06:01:08;;;;;;;;;;;20.40;37.40;;;;;;5136937;27;20577;-52
2022/04/25 06:03:35;;;;;;;;;;;20.40;37.40;;;;;;5121058;27;20015;-51
2022/04/25 06:06:01;;;;;;;;;;;20.40;37.40;;;;;;5129423;27;19930;-52
2022/04/25 06:08:28;;;;;;;;;;;20.40;37.40;;;;;;5120588;27;20018;-53
2022/04/25 06:10:55;;;;;;;;;;;20.40;37.40;;;;;;5119891;27;19930;-47
2022/04/25 06:13:24;;;;;;;;;;;20.40;37.40;;;;;;5129931;27;19923;-54
2022/04/25 06:15:50;;;;;;;;;;;20.40;37.40;;;;;;5124445;27;20372;-49
2022/04/25 06:18:17;;;;;;;;;;;20.40;37.30;;;;;;5128761;27;20030;-52
2022/04/25 06:20:44;;;;;;;;;;;20.40;37.30;;;;;;5129062;27;19923;-52
2022/04/25 06:23:10;;;;;;;;;;;20.40;37.30;;;;;;5118852;27;19926;-52
2022/04/25 06:25:38;;;;;;;;;;;20.40;37.30;;;;;;5130552;27;20017;-51
2022/04/25 06:28:05;;;;;;;;;;;20.40;37.30;;;;;;5125844;27;19931;-53
2022/04/25 06:30:33;;;;;;;;;;;20.40;37.30;;;;;;5141429;27;19958;-48
2022/04/25 06:32:59;;;;;;;;;;;20.40;37.30;;;;;;5128716;27;20007;-52
2022/04/25 06:35:26;;;;;;;;;;;20.40;37.30;;;;;;5123305;27;19940;-49
2022/04/25 06:37:53;;;;;;;;;;;20.40;37.30;;;;;;5117692;27;19941;-55
2022/04/25 06:40:21;;;;;;;;;;;20.40;37.30;;;;;;5117292;27;19919;-47
2022/04/25 06:42:48;;;;;;;;;;;20.40;37.30;;;;;;5138526;27;20386;-52
2022/04/25 06:45:15;;;;;;;;;;;20.40;37.30;;;;;;5120829;27;19976;-52
2022/04/25 06:47:43;;;;;;;;;;;20.40;37.20;;;;;;5119948;27;19919;-51
2022/04/25 06:50:10;;;;;;;;;;;20.40;37.30;;;;;;5132928;27;20018;-52
2022/04/25 06:52:37;;;;;;;;;;;20.40;37.30;;;;;;5135169;27;19927;-52
2022/04/25 06:55:05;;;;;;;;;;;20.40;37.30;;;;;;5118733;27;19929;-48
2022/04/25 06:57:33;;;;;;;;;;;20.40;37.30;;;;;;5129665;27;19923;-51
2022/04/25 07:00:00;;;;;;;;;;;20.40;37.30;;;;;;5154623;27;19930;-51
2022/04/25 07:02:26;;;;;;;;;;;20.40;37.30;;;;;;5129211;27;20274;-48
2022/04/25 07:04:55;;;;;;;;;;;20.40;37.30;;;;;;5133810;27;20009;-51
2022/04/25 07:07:22;;;;;;;;;;;20.40;37.30;;;;;;5121227;27;19965;-51
2022/04/25 07:09:48;;;;;;;;;;;20.40;37.30;;;;;;5129856;27;20376;-49
2022/04/25 07:12:16;;;;;;;;;;;20.40;37.30;;;;;;5125566;27;19950;-53
2022/04/25 07:14:43;;;;;;;;;;;20.40;37.30;;;;;;5119038;27;19993;-53
2022/04/25 07:17:09;;;;;;;;;;;20.40;37.30;;;;;;5138862;27;20351;-48
2022/04/25 07:19:39;;;;;;;;;;;20.40;37.20;;;;;;5144814;27;19920;-50
2022/04/25 07:30:22;;;;;;;;;;;20.40;37.20;;;;;;5143201;27;19927;-48
2022/04/25 07:32:48;;;;;;;;;;;20.40;37.20;;;;;;5124473;27;19962;-54
2022/04/25 07:35:15;;;;;;;;;;;20.40;37.20;;;;;;5122228;27;19919;-49
2022/04/25 07:37:43;;;;;;;;;;;20.40;37.20;;;;;;5119562;27;19923;-48
2022/04/25 07:40:10;;;;;;;;;;;20.40;37.20;;;;;;5120170;27;19985;-48
2022/04/25 07:42:38;;;;;;;;;;;20.40;37.20;;;;;;5126325;27;19919;-51
2022/04/25 07:45:05;;;;;;;;;;;20.40;37.20;;;;;;5122715;27;20022;-55
2022/04/25 07:47:32;;;;;;;;;;;20.40;37.20;;;;;;5124725;27;19920;-47
2022/04/25 07:49:59;;;;;;;;;;;20.40;37.20;;;;;;5146717;27;19919;-50
2022/04/25 07:52:26;;;;;;;;;;;20.40;37.20;;;;;;5129486;27;19925;-48
2022/04/25 07:54:56;;;;;;;;;;;20.40;37.20;;;;;;5146466;27;19942;-51
2022/04/25 07:57:23;;;;;;;;;;;20.40;37.20;;;;;;5128705;27;19923;-48
2022/04/25 07:59:49;;;;;;;;;;;20.40;37.20;;;;;;5146302;27;20213;-51
2022/04/25 08:02:17;;;;;;;;;;;20.40;37.20;;;;;;5129337;27;19979;-49
2022/04/25 08:04:44;;;;;;;;;;;20.40;37.20;;;;;;5128498;27;19982;-52
2022/04/25 08:07:11;;;;;;;;;;;20.40;37.20;;;;;;5146066;27;19926;-51
2022/04/25 08:09:38;;;;;;;;;;;20.40;37.80;;;;;;5122622;27;20321;-51
2022/04/25 08:18:01;;;;;;;;;;;20.40;37.20;;;;;;5060391;28;20409;-50
2022/04/25 08:20:28;;;;;;;;;;;20.40;37.20;;;;;;5101503;27;20015;-53
2022/04/25 08:22:55;;;;;;;;;;;20.40;37.20;;;;;;5124486;27;19920;-53
2022/04/25 08:25:22;;;;;;;;;;;20.40;37.20;;;;;;5128017;27;20340;-52
2022/04/25 08:27:51;;;;;;;;;;;20.40;37.20;;;;;;5129145;27;19978;-50
2022/04/25 08:30:20;;;;;;;;;;;20.40;37.20;;;;;;5125242;27;20402;-51
2022/04/25 08:32:47;;;;;;;;;;;20.40;37.20;;;;;;5124055;27;19923;-49
2022/04/25 08:35:14;;;;;;;;;;;20.40;37.20;;;;;;5126778;27;19935;-51
2022/04/25 08:37:40;;;;;;;;;;;20.40;37.20;;;;;;5122546;27;20268;-47
2022/04/25 08:40:08;;;;;;;;;;;20.40;37.20;;;;;;5125240;27;19919;-50
2022/04/25 08:42:35;;;;;;;;;;;20.40;37.20;;;;;;5130789;27;19920;-53
2022/04/25 08:45:05;;;;;;;;;;;20.40;37.20;;;;;;5123641;27;20014;-50
2022/04/25 08:47:33;;;;;;;;;;;20.40;37.20;;;;;;5130248;27;20006;-52
2022/04/25 08:50:00;;;;;;;;;;;20.40;37.20;;;;;;5112698;27;19926;-56
2022/04/25 08:52:27;;;;;;;;;;;20.40;37.20;;;;;;5127630;27;19983;-52
2022/04/25 08:54:54;;;;;;;;;;;20.40;37.20;;;;;;5127307;27;19951;-51
2022/04/25 08:57:21;;;;;;;;;;;20.40;37.20;;;;;;5127330;27;19988;-52
2022/04/25 08:59:48;;;;;;;;;;;20.40;37.20;;;;;;5123141;27;19927;-54
2022/04/25 09:02:16;;;;;;;;;;;20.40;37.20;;;;;;5128812;27;19923;-53
2022/04/25 09:04:46;;;;;;;;;;;20.40;37.20;;;;;;5122958;27;19970;-52
2022/04/25 09:07:13;;;;;;;;;;;20.40;37.20;;;;;;5144240;27;19920;-53
2022/04/25 09:09:41;;;;;;;;;;;20.40;37.20;;;;;;5124378;27;19919;-54
2022/04/25 09:12:12;;;;;;;;;;;20.40;37.20;;;;;;5125715;27;20013;-50
2022/04/25 09:14:40;;;;;;;;;;;20.40;37.10;;;;;;5151084;27;20408;-54
2022/04/25 09:17:07;;;;;;;;;;;20.40;37.20;;;;;;5127012;27;19919;-51
2022/04/25 09:19:36;;;;;;;;;;;20.40;37.20;;;;;;5128006;27;19931;-52
2022/04/25 09:22:03;;;;;;;;;;;20.40;37.20;;;;;;5126752;27;19947;-51
2022/04/25 09:24:30;;;;;;;;;;;20.40;37.20;;;;;;5123764;27;19939;-47
2022/04/25 09:27:10;;;;;;;;;;;20.40;37.20;;;;;;5125833;27;19919;-50
2022/04/25 09:29:37;;;;;;;;;;;20.40;37.20;;;;;;5131950;27;20014;-52
2022/04/25 09:32:04;;;;;;;;;;;20.40;37.20;;;;;;5126710;27;20017;-50
2022/04/25 09:37:17;;;;;;;;;;;20.40;37.20;;;;;;5128991;27;19962;-49
2022/04/25 09:39:44;;;;;;;;;;;20.40;37.20;;;;;;5127994;27;19958;-51
2022/04/25 09:42:10;;;;;;;;;;;20.40;37.20;;;;;;5120123;27;20352;-55
2022/04/25 09:44:56;;;;;;;;;;;20.40;37.20;;;;;;5121495;27;19919;-50
2022/04/25 09:47:27;;;;;;;;;;;20.40;37.20;;;;;;5131976;27;19926;-50
2022/04/25 09:49:58;;;;;;;;;;;20.40;37.20;;;;;;5126384;27;20474;-47
2022/04/25 09:52:27;;;;;;;;;;;20.40;37.20;;;;;;5133966;27;19993;-53
2022/04/25 09:54:53;;;;;;;;;;;20.40;37.20;;;;;;5129000;27;19976;-52
2022/04/25 09:57:30;;;;;;;;;;;20.40;37.20;;;;;;5125244;27;19966;-55
2022/04/25 09:59:57;;;;;;;;;;;20.40;37.20;;;;;;5118416;27;19919;-53
2022/04/25 10:02:24;;;;;;;;;;;20.40;37.20;;;;;;5125988;27;19927;-49
2022/04/25 10:04:50;;;;;;;;;;;20.40;37.20;;;;;;5130688;27;19955;-54
2022/04/25 10:07:17;;;;;;;;;;;20.40;37.20;;;;;;5123634;27;19920;-53
2022/04/25 10:09:46;;;;;;;;;;;20.40;37.20;;;;;;5127925;27;20014;-51
2022/04/25 10:12:13;;;;;;;;;;;20.40;37.20;;;;;;5123835;27;19924;-52
2022/04/25 10:14:39;;;;;;;;;;;20.40;37.20;;;;;;5127921;27;19931;-49
2022/04/25 10:17:06;;;;;;;;;;;20.40;37.20;;;;;;5125426;27;19924;-50
2022/04/25 10:19:33;;;;;;;;;;;20.40;37.20;;;;;;5123337;27;19919;-54
2022/04/25 10:22:00;;;;;;;;;;;20.40;37.10;;;;;;5123497;27;19931;-52
2022/04/25 10:24:26;;;;;;;;;;;20.40;37.20;;;;;;5140965;27;20006;-53
2022/04/25 10:26:57;;;;;;;;;;;20.40;37.20;;;;;;5125330;27;19958;-50
2022/04/25 10:29:25;;;;;;;;;;;20.40;37.20;;;;;;5147580;27;19924;-46
2022/04/25 10:31:52;;;;;;;;;;;20.40;37.20;;;;;;5142859;27;19919;-56
2022/04/25 10:34:19;;;;;;;;;;;20.40;37.20;;;;;;5143607;27;19990;-48
2022/04/25 10:36:47;;;;;;;;;;;20.40;37.20;;;;;;5124622;27;20044;-49
2022/04/25 10:39:14;;;;;;;;;;;20.40;37.20;;;;;;5138158;27;19976;-50
2022/04/25 10:44:47;;;;;;;;;;;20.40;37.20;;;;;;5142433;27;19923;-51
2022/04/25 10:47:15;;;;;;;;;;;20.40;37.20;;;;;;5126534;27;19948;-52
2022/04/25 10:49:45;;;;;;;;;;;20.40;37.20;;;;;;5137748;27;19962;-53
2022/04/25 10:52:30;;;;;;;;;;;20.40;37.20;;;;;;5120605;27;19926;-48
2022/04/25 10:55:19;;;;;;;;;;;20.40;37.20;;;;;;5123057;27;20019;-51
2022/04/25 10:58:07;;;;;;;;;;;20.40;37.20;;;;;;5090529;28;20008;-49
2022/04/25 11:01:01;;;;;;;;;;;20.40;37.20;;;;;;5099671;28;19920;-49
2022/04/25 11:03:29;;;;;;;;;;;20.40;37.20;;;;;;5077455;28;19927;-52
2022/04/25 11:05:56;;;;;;;;;;;20.40;37.20;;;;;;5093282;28;19947;-50
2022/04/25 11:08:24;;;;;;;;;;;20.40;37.20;;;;;;5095394;28;20011;-51
2022/04/25 11:10:52;;;;;;;;;;;20.40;37.20;;;;;;5111826;28;20007;-52
2022/04/25 11:13:19;;;;;;;;;;;20.50;37.30;;;;;;5094676;28;20006;-52
2022/04/25 11:15:47;;;;;;;;;;;20.40;37.20;;;;;;5114777;28;19984;-52
2022/04/25 11:18:24;;;;;;;;;;;20.40;37.20;;;;;;5113603;28;19920;-49
2022/04/25 11:20:54;;;;;;;;;;;20.40;37.20;;;;;;5112215;28;20053;-49
2022/04/25 11:23:26;;;;;;;;;;;20.40;37.20;;;;;;5105046;28;19928;-50
2022/04/25 11:25:56;;;;;;;;;;;20.50;37.30;;;;;;5109513;28;20254;-51
2022/04/25 11:28:22;;;;;;;;;;;20.40;37.20;;;;;;5100167;28;20428;-54
2022/04/25 11:31:05;;;;;;;;;;;20.40;37.20;;;;;;5117075;28;20353;-49
2022/04/25 11:33:40;;;;;;;;;;;20.40;37.20;;;;;;5102967;27;19920;-51
2022/04/25 11:36:07;;;;;;;;;;;20.40;37.20;;;;;;5110010;28;19924;-53
2022/04/25 11:41:18;;;;;;;;;;;20.40;37.20;;;;;;5100886;28;19920;-54
2022/04/25 11:43:45;;;;;;;;;;;20.50;37.30;;;;;;5094635;28;19931;-53
2022/04/25 11:46:11;;;;;;;;;;;20.50;37.90;;;;;;5097276;28;19931;-48
2022/04/25 11:48:38;;;;;;;;;;;20.50;37.30;;;;;;5110430;28;19928;-51
2022/04/25 11:51:05;;;;;;;;;;;20.50;37.30;;;;;;5119163;28;19920;-50
2022/04/25 11:53:32;;;;;;;;;;;20.40;37.20;;;;;;5116956;27;20293;-53
2022/04/25 11:56:01;;;;;;;;;;;20.50;37.30;;;;;;5110686;28;19924;-52
2022/04/25 11:58:32;;;;;;;;;;;20.50;37.30;;;;;;5121303;28;20285;-55
2022/04/25 12:00:59;;;;;;;;;;;20.40;37.20;;;;;;5103796;28;19969;-52
2022/04/25 12:03:26;;;;;;;;;;;20.50;37.30;;;;;;5120591;28;19920;-50
2022/04/25 12:05:53;;;;;;;;;;;20.50;37.30;;;;;;5083871;28;19924;-51
2022/04/25 12:16:37;;;;;;;;;;;20.50;37.30;;;;;;5088849;28;19920;-47
2022/04/25 12:19:06;;;;;;;;;;;20.50;37.30;;;;;;5100686;28;19927;-50
2022/04/25 12:21:34;;;;;;;;;;;20.50;37.30;;;;;;5084854;28;20018;-48
2022/04/25 12:24:01;;;;;;;;;;;20.50;37.30;;;;;;5092605;28;19929;-51
2022/04/25 12:26:29;;;;;;;;;;;20.50;37.30;;;;;;5065094;28;19966;-51
2022/04/25 12:28:59;;;;;;;;;;;20.50;37.30;;;;;;5084968;28;19920;-52
2022/04/25 12:31:26;;;;;;;;;;;20.50;37.30;;;;;;5080160;28;19927;-50
2022/04/25 12:33:53;;;;;;;;;;;20.40;37.20;;;;;;5116678;27;20370;-52
2022/04/25 12:36:20;;;;;;;;;;;20.50;37.30;;;;;;5099105;28;19931;-52
2022/04/25 12:38:54;;;;;;;;;;;20.50;37.30;;;;;;5081191;28;19920;-49
2022/04/25 12:41:22;;;;;;;;;;;20.50;37.30;;;;;;5080751;28;19932;-53
2022/04/25 12:43:49;;;;;;;;;;;20.50;37.30;;;;;;5071175;28;19993;-50
2022/04/25 12:46:18;;;;;;;;;;;20.50;37.30;;;;;;5100530;28;19920;-50
2022/04/25 12:48:57;;;;;;;;;;;20.50;37.30;;;;;;5096456;28;20031;-49
2022/04/25 12:51:31;;;;;;;;;;;20.50;37.30;;;;;;5101215;28;20451;-53
2022/04/25 12:53:58;;;;;;;;;;;20.50;37.30;;;;;;5082628;28;20025;-48
2022/04/25 12:56:25;;;;;;;;;;;20.50;37.30;;;;;;5098476;28;20329;-49
2022/04/25 12:58:52;;;;;;;;;;;20.50;37.30;;;;;;5082046;28;19950;-49
2022/04/25 13:01:31;;;;;;;;;;;20.50;37.30;;;;;;5083604;28;20436;-50
2022/04/25 13:04:12;;;;;;;;;;;20.50;37.30;;;;;;5081204;28;19934;-47
2022/04/25 13:06:39;;;;;;;;;;;20.50;37.30;;;;;;5097430;28;19967;-51
2022/04/25 13:09:06;;;;;;;;;;;20.50;37.30;;;;;;5103677;28;19988;-53
2022/04/25 13:11:33;;;;;;;;;;;20.50;37.30;;;;;;5067535;28;19920;-53
2022/04/25 13:14:00;;;;;;;;;;;20.50;37.30;;;;;;5096956;28;19929;-51
2022/04/25 13:16:27;;;;;;;;;;;20.50;37.30;;;;;;5065802;28;19953;-56
2022/04/25 13:18:55;;;;;;;;;;;20.50;37.30;;;;;;5071488;28;19966;-49
2022/04/25 13:21:22;;;;;;;;;;;20.50;37.30;;;;;;5095700;28;19920;-52
2022/04/25 13:23:49;;;;;;;;;;;20.50;37.30;;;;;;5084924;28;19920;-50
2022/04/25 13:26:16;;;;;;;;;;;20.50;37.30;;;;;;5117595;27;19920;-48
2022/04/25 13:28:43;;;;;;;;;;;20.50;37.30;;;;;;5104882;28;19927;-55
2022/04/25 13:31:10;;;;;;;;;;;20.50;37.30;;;;;;5077902;28;19951;-53
2022/04/25 13:33:36;;;;;;;;;;;20.50;37.30;;;;;;5076915;28;19966;-51
2022/04/25 13:36:06;;;;;;;;;;;20.50;37.30;;;;;;5110136;27;19973;-49
2022/04/25 13:38:33;;;;;;;;;;;20.50;37.30;;;;;;5081128;28;19926;-50
2022/04/25 13:41:00;;;;;;;;;;;20.50;37.30;;;;;;5081482;28;20271;-48
2022/04/25 13:43:27;;;;;;;;;;;20.50;37.30;;;;;;5080521;28;19921;-50
2022/04/25 13:45:54;;;;;;;;;;;20.50;37.30;;;;;;5090998;28;19962;-54
2022/04/25 13:48:22;;;;;;;;;;;20.50;37.30;;;;;;5088539;28;19993;-52
2022/04/25 13:50:49;;;;;;;;;;;20.50;37.30;;;;;;5070049;28;20075;-53
2022/04/25 13:53:17;;;;;;;;;;;20.50;37.30;;;;;;5074874;28;19977;-51
2022/04/25 13:55:46;;;;;;;;;;;20.50;37.30;;;;;;5098059;28;19924;-53
2022/04/25 13:58:13;;;;;;;;;;;20.50;37.30;;;;;;5085413;28;19963;-52
2022/04/25 14:00:40;;;;;;;;;;;20.50;37.30;;;;;;5082707;28;19920;-51
2022/04/25 14:03:06;;;;;;;;;;;20.50;37.30;;;;;;5082727;28;19920;-52
2022/04/25 14:05:35;;;;;;;;;;;20.50;37.30;;;;;;5093301;28;19921;-50
2022/04/25 14:08:02;;;;;;;;;;;20.50;37.30;;;;;;5090587;28;19954;-46
2022/04/25 14:10:30;;;;;;;;;;;20.50;37.30;;;;;;5087064;28;19935;-48
2022/04/25 14:12:57;;;;;;;;;;;20.50;37.30;;;;;;5081187;28;19952;-53
2022/04/25 14:15:24;;;;;;;;;;;20.50;37.30;;;;;;5083607;28;19920;-50
2022/04/25 14:17:50;;;;;;;;;;;20.50;37.30;;;;;;5103033;28;19920;-52
2022/04/25 14:20:17;;;;;;;;;;;20.50;37.30;;;;;;5084116;28;19953;-52
2022/04/25 14:22:44;;;;;;;;;;;20.50;37.30;;;;;;5080151;28;19977;-53
2022/04/25 14:25:10;;;;;;;;;;;20.50;37.30;;;;;;5076782;28;19927;-54
2022/04/25 14:27:39;;;;;;;;;;;20.50;37.30;;;;;;5081128;28;19920;-51
2022/04/25 14:30:06;;;;;;;;;;;20.50;37.30;;;;;;5073967;28;20250;-52
2022/04/25 14:32:34;;;;;;;;;;;20.50;37.30;;;;;;5060560;28;19931;-54
2022/04/25 14:35:00;;;;;;;;;;;20.50;37.30;;;;;;5096177;28;19951;-52
2022/04/25 14:37:27;;;;;;;;;;;20.50;37.30;;;;;;5087725;28;19992;-55
2022/04/25 14:39:54;;;;;;;;;;;20.50;37.30;;;;;;5075641;28;19964;-51
2022/04/25 14:42:21;;;;;;;;;;;20.50;37.30;;;;;;5078446;28;20401;-50
2022/04/25 14:44:49;;;;;;;;;;;20.50;37.30;;;;;;5077599;28;19923;-51
2022/04/25 14:47:15;;;;;;;;;;;20.50;37.30;;;;;;5100176;28;19921;-53
2022/04/25 14:55:11;;;;;;;;;;;20.50;37.30;;;;;;5073466;28;19927;-54
2022/04/25 14:57:38;;;;;;;;;;;20.50;37.30;;;;;;5090032;28;20003;-53
2022/04/25 15:00:07;;;;;;;;;;;20.50;37.30;;;;;;5088730;28;19970;-54
2022/04/25 15:02:33;;;;;;;;;;;20.50;37.30;;;;;;5076617;28;19921;-55
2022/04/25 15:05:00;;;;;;;;;;;20.50;37.40;;;;;;5115122;28;19993;-55
2022/04/25 15:07:27;;;;;;;;;;;20.50;37.30;;;;;;5081820;28;19961;-52